Time;durP1;ratioP1;P1;durP2;ratioP2;P2;SDS_P1;SDS_P2;PMS_P1;PMS_P2;Temp;Humidity;BMP_temperature;BMP_pressure;BME280_temperature;BME280_humidity;BME280_pressure;Samples;Min_cycle;Max_cycle;Signal;HPM_P1;HPM_P2
2022/08/06 00:02:18;;;;;;;12.80;5.57;;;;;;;;;;5077322;28;20025;-78
2022/08/06 00:04:44;;;;;;;8.10;4.70;;;;;;;;;;5077341;28;20478;-78
2022/08/06 00:07:10;;;;;;;6.38;4.80;;;;;;;;;;5077295;28;20058;-77
2022/08/06 00:09:36;;;;;;;9.15;5.28;;;;;;;;;;5077249;28;20318;-77
2022/08/06 00:12:03;;;;;;;8.00;5.55;;;;;;;;;;5077641;28;20070;-78
2022/08/06 00:14:31;;;;;;;10.27;6.05;;;;;;;;;;5077379;28;20033;-78
2022/08/06 00:16:57;;;;;;;10.68;4.85;;;;;;;;;;5077226;28;20028;-78
2022/08/06 00:19:24;;;;;;;10.95;5.25;;;;;;;;;;5077215;28;20065;-78
2022/08/06 00:21:50;;;;;;;13.15;5.53;;;;;;;;;;5077090;28;20032;-78
2022/08/06 00:24:16;;;;;;;8.15;5.28;;;;;;;;;;5077154;28;20017;-78
2022/08/06 00:26:43;;;;;;;10.60;5.25;;;;;;;;;;5077379;28;20020;-78
2022/08/06 00:29:09;;;;;;;11.45;5.43;;;;;;;;;;5076112;28;20024;-78
2022/08/06 00:31:35;;;;;;;9.63;6.10;;;;;;;;;;5077019;28;20031;-78
2022/08/06 00:34:02;;;;;;;10.38;6.22;;;;;;;;;;5077066;28;20433;-78
2022/08/06 00:36:29;;;;;;;11.80;6.05;;;;;;;;;;5076884;28;20053;-78
2022/08/06 00:38:55;;;;;;;14.23;7.00;;;;;;;;;;5076998;28;20119;-78
2022/08/06 00:41:22;;;;;;;9.88;7.00;;;;;;;;;;5076648;28;20044;-78
2022/08/06 00:43:50;;;;;;;13.25;6.88;;;;;;;;;;5077160;28;20016;-78
2022/08/06 00:46:16;;;;;;;14.38;7.00;;;;;;;;;;5077024;28;20044;-78
2022/08/06 00:48:42;;;;;;;10.60;7.15;;;;;;;;;;5076925;28;20020;-78
2022/08/06 00:51:08;;;;;;;13.43;6.45;;;;;;;;;;5076928;28;20030;-78
2022/08/06 00:53:36;;;;;;;10.73;6.00;;;;;;;;;;5075422;28;20068;-78
2022/08/06 00:56:03;;;;;;;12.60;6.80;;;;;;;;;;5076942;28;20029;-78
2022/08/06 00:58:29;;;;;;;11.82;7.03;;;;;;;;;;5076991;28;20150;-78
2022/08/06 01:00:55;;;;;;;17.00;6.65;;;;;;;;;;5076741;28;20428;-78
2022/08/06 01:03:22;;;;;;;10.55;5.65;;;;;;;;;;5075368;28;20055;-78
2022/08/06 01:05:48;;;;;;;13.65;5.50;;;;;;;;;;5076752;28;20028;-78
2022/08/06 01:08:14;;;;;;;9.43;5.68;;;;;;;;;;5075558;28;20107;-78
2022/08/06 01:10:40;;;;;;;13.13;5.38;;;;;;;;;;5076809;28;20032;-78
2022/08/06 01:13:06;;;;;;;11.32;5.65;;;;;;;;;;5076652;28;20391;-78
2022/08/06 01:15:34;;;;;;;10.30;5.53;;;;;;;;;;5076909;28;20107;-78
2022/08/06 01:18:10;;;;;;;12.85;6.07;;;;;;;;;;5076734;28;20032;-78
2022/08/06 01:20:47;;;;;;;9.45;5.63;;;;;;;;;;5076617;28;20028;-78
2022/08/06 01:23:16;;;;;;;10.52;5.40;;;;;;;;;;5076510;28;20302;-78
2022/08/06 01:26:02;;;;;;;10.48;5.93;;;;;;;;;;5076620;28;20028;-78
2022/08/06 01:28:31;;;;;;;6.95;5.45;;;;;;;;;;5034548;28;20328;-78
2022/08/06 01:31:03;;;;;;;12.40;5.43;;;;;;;;;;5034588;28;20036;-78
2022/08/06 01:33:36;;;;;;;12.15;5.57;;;;;;;;;;5034730;28;20096;-78
2022/08/06 01:36:04;;;;;;;15.27;5.28;;;;;;;;;;5034750;28;20072;-77
2022/08/06 01:38:32;;;;;;;10.15;5.50;;;;;;;;;;5034714;28;20407;-78
2022/08/06 01:41:02;;;;;;;8.85;5.60;;;;;;;;;;5034241;28;20054;-78
2022/08/06 01:43:29;;;;;;;11.02;5.43;;;;;;;;;;5034630;28;20377;-78
2022/08/06 01:45:56;;;;;;;10.32;5.15;;;;;;;;;;5034454;28;20080;-78
2022/08/06 01:48:24;;;;;;;11.95;5.60;;;;;;;;;;5035602;28;20024;-78
2022/08/06 01:50:53;;;;;;;7.68;5.10;;;;;;;;;;5038081;28;20125;-77
2022/08/06 01:53:40;;;;;;;10.88;5.00;;;;;;;;;;5037963;28;20438;-78
2022/08/06 01:56:07;;;;;;;10.23;4.38;;;;;;;;;;5037876;28;20037;-78
2022/08/06 01:58:35;;;;;;;6.65;4.38;;;;;;;;;;5037606;28;20049;-78
2022/08/06 02:01:12;;;;;;;7.82;4.32;;;;;;;;;;5037869;28;20032;-78
2022/08/06 02:03:43;;;;;;;5.32;4.40;;;;;;;;;;5037965;28;20049;-78
2022/08/06 02:06:14;;;;;;;6.88;4.13;;;;;;;;;;5069731;28;20060;-78
2022/08/06 02:08:42;;;;;;;10.85;5.20;;;;;;;;;;5079585;28;20021;-77
2022/08/06 02:11:09;;;;;;;7.97;4.43;;;;;;;;;;5079456;28;20432;-78
2022/08/06 02:13:35;;;;;;;6.70;4.75;;;;;;;;;;5079682;28;20032;-78
2022/08/06 02:16:02;;;;;;;7.72;4.82;;;;;;;;;;5079434;28;20035;-78
2022/08/06 02:18:30;;;;;;;11.73;5.47;;;;;;;;;;5079591;28;20029;-77
2022/08/06 02:20:57;;;;;;;9.40;5.68;;;;;;;;;;5079294;28;20024;-78
2022/08/06 02:23:24;;;;;;;10.20;6.32;;;;;;;;;;5079237;28;20027;-78
2022/08/06 02:25:52;;;;;;;13.98;6.47;;;;;;;;;;5079421;28;20021;-78
2022/08/06 02:28:19;;;;;;;13.65;7.57;;;;;;;;;;5079379;28;20082;-78
2022/08/06 02:30:47;;;;;;;12.05;6.15;;;;;;;;;;5079390;28;20028;-77
2022/08/06 02:33:13;;;;;;;10.88;6.43;;;;;;;;;;5078111;28;20111;-78
2022/08/06 02:35:48;;;;;;;11.63;6.22;;;;;;;;;;5079142;28;20070;-78
2022/08/06 02:38:34;;;;;;;7.95;5.97;;;;;;;;;;5079101;28;20403;-78
2022/08/06 02:41:02;;;;;;;9.13;5.88;;;;;;;;;;5077565;28;20053;-78
2022/08/06 02:43:35;;;;;;;8.38;5.90;;;;;;;;;;5078919;28;20017;-78
2022/08/06 02:46:13;;;;;;;8.00;5.30;;;;;;;;;;5078986;28;20046;-78
2022/08/06 02:48:39;;;;;;;7.47;5.95;;;;;;;;;;5078761;28;20027;-78
2022/08/06 02:51:09;;;;;;;10.20;5.47;;;;;;;;;;5079052;28;20028;-78
2022/08/06 02:53:37;;;;;;;12.57;5.70;;;;;;;;;;5077634;28;20393;-78
2022/08/06 02:56:11;;;;;;;6.85;4.95;;;;;;;;;;5078849;28;20025;-78
2022/08/06 02:58:40;;;;;;;9.63;5.47;;;;;;;;;;5078672;28;20028;-78
2022/08/06 03:01:12;;;;;;;12.98;5.93;;;;;;;;;;5078657;28;20406;-78
2022/08/06 03:03:43;;;;;;;12.73;5.43;;;;;;;;;;5078752;28;20027;-78
2022/08/06 03:06:10;;;;;;;13.30;5.85;;;;;;;;;;5078510;28;20016;-78
2022/08/06 03:08:36;;;;;;;11.48;5.57;;;;;;;;;;5077443;28;20031;-78
2022/08/06 03:11:03;;;;;;;8.57;4.82;;;;;;;;;;5078618;28;20036;-78
2022/08/06 03:13:30;;;;;;;12.98;5.05;;;;;;;;;;5078352;28;20027;-78
2022/08/06 03:15:56;;;;;;;23.30;6.53;;;;;;;;;;5078285;28;20105;-78
2022/08/06 03:18:23;;;;;;;13.27;5.25;;;;;;;;;;5078471;28;20031;-78
2022/08/06 03:20:51;;;;;;;14.25;5.20;;;;;;;;;;5078309;28;20066;-78
2022/08/06 03:23:17;;;;;;;11.25;4.82;;;;;;;;;;5078133;28;20023;-78
2022/08/06 03:25:44;;;;;;;8.38;4.72;;;;;;;;;;5078019;28;20421;-78
2022/08/06 03:28:12;;;;;;;12.73;4.80;;;;;;;;;;5078112;28;20434;-78
2022/08/06 03:30:39;;;;;;;15.80;4.68;;;;;;;;;;5078038;28;20037;-78
2022/08/06 03:33:07;;;;;;;13.65;4.50;;;;;;;;;;5078076;28;20066;-78
2022/08/06 03:35:34;;;;;;;16.52;4.90;;;;;;;;;;5077931;28;20024;-78
2022/08/06 03:38:00;;;;;;;15.40;4.93;;;;;;;;;;5077853;28;20020;-77
2022/08/06 03:40:27;;;;;;;13.57;4.30;;;;;;;;;;5077591;28;20095;-78
2022/08/06 03:54:08;;;;;;;9.82;4.38;;;;;;;;;;5135641;27;20456;-78
2022/08/06 03:56:36;;;;;;;12.05;4.20;;;;;;;;;;5117176;28;20042;-78
2022/08/06 03:59:04;;;;;;;10.85;4.70;;;;;;;;;;5134987;28;20034;-78
2022/08/06 04:01:32;;;;;;;11.90;4.32;;;;;;;;;;5135129;28;20016;-78
2022/08/06 04:03:58;;;;;;;9.13;4.22;;;;;;;;;;5135036;28;20094;-78
2022/08/06 04:06:25;;;;;;;7.95;3.90;;;;;;;;;;5135013;28;20023;-78
2022/08/06 04:08:51;;;;;;;9.52;4.25;;;;;;;;;;5134969;28;20024;-78
2022/08/06 04:11:18;;;;;;;10.25;4.30;;;;;;;;;;5134985;28;20449;-78
2022/08/06 04:13:44;;;;;;;15.10;4.80;;;;;;;;;;5135007;28;20118;-78
2022/08/06 04:16:14;;;;;;;8.45;4.40;;;;;;;;;;5116705;28;20023;-78
2022/08/06 04:18:41;;;;;;;7.70;4.07;;;;;;;;;;5116311;28;20403;-78
2022/08/06 04:21:16;;;;;;;11.93;4.53;;;;;;;;;;5134760;28;20088;-78
2022/08/06 04:23:43;;;;;;;8.18;4.25;;;;;;;;;;5134927;28;20080;-78
2022/08/06 04:26:09;;;;;;;10.88;4.00;;;;;;;;;;5134637;28;20019;-78
2022/08/06 04:28:36;;;;;;;8.23;3.83;;;;;;;;;;5134558;28;20037;-78
2022/08/06 04:31:03;;;;;;;9.35;3.58;;;;;;;;;;5134508;28;20053;-78
2022/08/06 04:33:31;;;;;;;8.82;3.60;;;;;;;;;;5134580;28;20110;-78
2022/08/06 04:36:04;;;;;;;12.38;3.70;;;;;;;;;;5116291;28;20533;-78
2022/08/06 04:38:31;;;;;;;8.07;3.80;;;;;;;;;;5134329;28;20361;-78
2022/08/06 04:40:57;;;;;;;7.78;3.58;;;;;;;;;;5134431;28;20031;-78
2022/08/06 04:43:23;;;;;;;8.07;3.92;;;;;;;;;;5134238;28;20286;-78
2022/08/06 04:45:49;;;;;;;7.63;3.78;;;;;;;;;;5134293;28;20479;-78
2022/08/06 04:48:16;;;;;;;8.32;3.70;;;;;;;;;;5134240;28;20411;-78
2022/08/06 04:50:42;;;;;;;6.00;3.85;;;;;;;;;;5132908;28;20035;-78
2022/08/06 04:53:12;;;;;;;10.73;3.47;;;;;;;;;;5131348;28;20075;-78
2022/08/06 04:55:39;;;;;;;10.07;3.55;;;;;;;;;;5120452;28;20035;-77
2022/08/06 04:58:06;;;;;;;10.25;3.60;;;;;;;;;;5120431;28;20027;-78
2022/08/06 05:00:32;;;;;;;13.48;4.13;;;;;;;;;;5120349;28;20076;-78
2022/08/06 05:02:59;;;;;;;7.63;3.60;;;;;;;;;;5120393;28;20304;-78
2022/08/06 05:05:25;;;;;;;7.60;3.38;;;;;;;;;;5120393;28;20028;-78
2022/08/06 05:07:53;;;;;;;7.80;3.70;;;;;;;;;;5120364;28;20015;-79
2022/08/06 05:10:20;;;;;;;8.30;4.00;;;;;;;;;;5120045;28;20389;-78
2022/08/06 05:12:49;;;;;;;11.85;4.18;;;;;;;;;;5119058;28;20042;-78
2022/08/06 05:15:29;;;;;;;11.07;3.97;;;;;;;;;;5119960;28;20026;-78
2022/08/06 05:18:00;;;;;;;12.88;4.22;;;;;;;;;;5120131;28;20068;-78
2022/08/06 05:20:28;;;;;;;8.93;4.07;;;;;;;;;;5120233;28;20031;-78
2022/08/06 05:22:57;;;;;;;5.60;3.85;;;;;;;;;;5119913;28;20035;-78
2022/08/06 05:25:28;;;;;;;12.57;3.72;;;;;;;;;;5120050;28;20307;-78
2022/08/06 05:27:55;;;;;;;6.47;3.57;;;;;;;;;;5119866;28;20147;-78
2022/08/06 05:30:23;;;;;;;9.13;3.58;;;;;;;;;;5120079;28;20020;-78
2022/08/06 05:32:49;;;;;;;11.75;3.80;;;;;;;;;;5119757;28;20417;-78
2022/08/06 05:35:16;;;;;;;7.80;3.88;;;;;;;;;;5119842;28;20073;-78
2022/08/06 05:37:42;;;;;;;9.63;4.57;;;;;;;;;;5119674;28;20023;-78
2022/08/06 05:40:08;;;;;;;10.68;4.07;;;;;;;;;;5119799;28;20027;-79
2022/08/06 05:42:34;;;;;;;11.00;4.32;;;;;;;;;;5119543;28;20339;-78
2022/08/06 05:45:01;;;;;;;12.45;4.85;;;;;;;;;;5119473;28;20393;-78
2022/08/06 05:47:29;;;;;;;13.40;5.03;;;;;;;;;;5119592;28;20027;-78
2022/08/06 05:49:58;;;;;;;8.73;4.65;;;;;;;;;;5118415;28;20023;-78
2022/08/06 05:52:30;;;;;;;10.10;4.53;;;;;;;;;;5119025;28;20139;-78
2022/08/06 05:55:02;;;;;;;15.30;4.13;;;;;;;;;;5119403;28;20024;-78
2022/08/06 05:57:28;;;;;;;9.82;4.00;;;;;;;;;;5119175;28;20026;-78
2022/08/06 05:59:58;;;;;;;12.25;3.88;;;;;;;;;;5119248;28;20316;-78
2022/08/06 06:02:25;;;;;;;9.30;3.53;;;;;;;;;;5119162;28;20084;-78
2022/08/06 06:04:51;;;;;;;13.95;4.68;;;;;;;;;;5118596;28;20043;-78
2022/08/06 06:07:18;;;;;;;9.38;3.67;;;;;;;;;;5117400;28;20023;-78
2022/08/06 06:09:44;;;;;;;9.15;3.78;;;;;;;;;;5118964;28;20066;-78
2022/08/06 06:12:11;;;;;;;8.50;4.93;;;;;;;;;;5118834;28;20321;-78
2022/08/06 06:14:37;;;;;;;11.70;4.65;;;;;;;;;;5119007;28;20074;-78
2022/08/06 06:17:20;;;;;;;11.23;4.13;;;;;;;;;;5119148;28;20061;-78
2022/08/06 06:19:46;;;;;;;10.68;3.38;;;;;;;;;;5119004;28;20023;-78
2022/08/06 06:22:34;;;;;;;12.77;4.13;;;;;;;;;;5118845;28;20028;-78
2022/08/06 06:25:05;;;;;;;13.50;3.95;;;;;;;;;;5118716;28;20023;-78
2022/08/06 06:27:31;;;;;;;10.50;3.92;;;;;;;;;;5118657;28;20042;-78
2022/08/06 06:30:08;;;;;;;7.93;3.60;;;;;;;;;;5118688;28;20065;-78
2022/08/06 06:33:10;;;;;;;12.05;3.72;;;;;;;;;;5117043;28;20032;-78
2022/08/06 06:35:46;;;;;;;17.13;3.88;;;;;;;;;;5036005;28;20027;-78
2022/08/06 06:38:15;;;;;;;13.70;3.90;;;;;;;;;;5035983;28;20435;-78
2022/08/06 06:41:00;;;;;;;8.88;3.70;;;;;;;;;;5036039;28;20029;-79
2022/08/06 06:43:27;;;;;;;7.20;3.40;;;;;;;;;;5035499;28;20041;-77
2022/08/06 06:45:53;;;;;;;10.15;3.17;;;;;;;;;;5035894;28;20018;-78
2022/08/06 06:48:21;;;;;;;14.43;4.18;;;;;;;;;;5035458;28;20052;-78
2022/08/06 06:50:48;;;;;;;20.08;4.20;;;;;;;;;;5035782;28;20378;-78
2022/08/06 06:53:16;;;;;;;31.45;5.60;;;;;;;;;;5035554;28;20057;-78
2022/08/06 06:55:44;;;;;;;40.33;5.22;;;;;;;;;;5035775;28;20083;-78
2022/08/06 06:58:31;;;;;;;51.60;5.57;;;;;;;;;;5019008;28;20369;-78
2022/08/06 07:00:57;;;;;;;21.83;4.68;;;;;;;;;;5035505;28;20025;-78
2022/08/06 07:03:24;;;;;;;27.27;5.43;;;;;;;;;;5035269;28;20041;-78
2022/08/06 07:05:51;;;;;;;18.05;4.43;;;;;;;;;;5035637;28;20021;-78
2022/08/06 07:08:18;;;;;;;14.82;3.67;;;;;;;;;;5035567;28;20064;-78
2022/08/06 07:10:45;;;;;;;6.20;3.33;;;;;;;;;;5097096;28;20119;-78
2022/08/06 07:13:12;;;;;;;15.65;4.03;;;;;;;;;;5097594;28;20024;-78
2022/08/06 07:15:38;;;;;;;10.90;3.45;;;;;;;;;;5096078;28;20082;-78
2022/08/06 07:18:05;;;;;;;15.13;3.95;;;;;;;;;;5095585;28;20036;-78
2022/08/06 07:20:32;;;;;;;23.92;4.30;;;;;;;;;;5097097;28;20031;-78
2022/08/06 07:22:59;;;;;;;16.77;3.90;;;;;;;;;;5097614;28;20143;-78
2022/08/06 07:25:25;;;;;;;19.35;3.85;;;;;;;;;;5097283;28;20429;-78
2022/08/06 07:27:51;;;;;;;17.95;3.42;;;;;;;;;;5097380;28;20027;-78
2022/08/06 07:30:19;;;;;;;8.77;3.40;;;;;;;;;;5097529;28;20095;-83
2022/08/06 07:32:45;;;;;;;9.55;3.58;;;;;;;;;;5095839;28;20029;-78
2022/08/06 07:35:12;;;;;;;148.93;17.48;;;;;;;;;;5097366;28;20066;-78
2022/08/06 07:37:41;;;;;;;11.70;3.45;;;;;;;;;;5097315;28;20024;-82
2022/08/06 07:40:08;;;;;;;5.93;3.30;;;;;;;;;;5097113;28;20397;-78
2022/08/06 07:42:35;;;;;;;8.40;3.03;;;;;;;;;;5097204;28;20028;-77
2022/08/06 07:45:02;;;;;;;9.82;3.13;;;;;;;;;;5097285;28;20021;-78
2022/08/06 07:47:30;;;;;;;15.93;3.35;;;;;;;;;;5097068;28;20028;-77
2022/08/06 07:49:58;;;;;;;5.70;2.78;;;;;;;;;;5097051;28;20107;-78
2022/08/06 07:52:25;;;;;;;4.45;3.13;;;;;;;;;;5096788;28;20078;-78
2022/08/06 07:54:51;;;;;;;9.30;3.20;;;;;;;;;;5096961;28;20455;-77
2022/08/06 07:57:18;;;;;;;4.72;3.15;;;;;;;;;;5096959;28;20035;-76
2022/08/06 07:59:45;;;;;;;14.50;5.18;;;;;;;;;;5096837;28;20045;-77
2022/08/06 08:02:11;;;;;;;10.95;3.95;;;;;;;;;;5096911;28;20085;-77
2022/08/06 08:07:22;;;;;;;14.43;3.65;;;;;;;;;;5097172;28;20136;-76
2022/08/06 08:09:49;;;;;;;10.63;3.83;;;;;;;;;;5097026;28;20031;-76
2022/08/06 08:12:18;;;;;;;10.40;4.28;;;;;;;;;;5097008;28;20028;-77
2022/08/06 08:14:47;;;;;;;12.30;3.63;;;;;;;;;;5096872;28;20405;-77
2022/08/06 08:17:14;;;;;;;8.75;5.32;;;;;;;;;;5096854;28;20350;-76
2022/08/06 08:19:40;;;;;;;11.77;8.48;;;;;;;;;;5096546;28;20392;-76
2022/08/06 08:22:07;;;;;;;24.55;20.20;;;;;;;;;;5096660;28;20305;-76
2022/08/06 08:24:36;;;;;;;53.25;40.50;;;;;;;;;;5096920;28;20095;-76
2022/08/06 08:27:08;;;;;;;8.55;4.32;;;;;;;;;;5096818;28;20024;-76
2022/08/06 08:29:34;;;;;;;7.38;5.10;;;;;;;;;;5098886;28;20374;-76
2022/08/06 08:32:01;;;;;;;4.05;2.78;;;;;;;;;;5099138;28;20072;-77
2022/08/06 08:34:27;;;;;;;6.13;3.45;;;;;;;;;;5099363;28;20055;-77
2022/08/06 08:36:53;;;;;;;6.80;4.85;;;;;;;;;;5100335;28;20484;-77
2022/08/06 08:39:19;;;;;;;72.65;56.25;;;;;;;;;;5100395;28;20119;-77
2022/08/06 08:41:49;;;;;;;38.17;32.47;;;;;;;;;;5100154;28;20024;-77
2022/08/06 08:44:21;;;;;;;49.03;39.90;;;;;;;;;;5100481;28;20020;-77
2022/08/06 08:46:48;;;;;;;6.28;3.45;;;;;;;;;;5100049;28;20042;-77
2022/08/06 08:49:19;;;;;;;10.90;8.18;;;;;;;;;;5099812;28;20104;-77
2022/08/06 08:51:46;;;;;;;14.60;9.73;;;;;;;;;;5099899;28;20028;-76
2022/08/06 08:54:20;;;;;;;43.08;36.90;;;;;;;;;;5099772;28;20027;-77
2022/08/06 08:56:47;;;;;;;18.73;13.10;;;;;;;;;;5100337;28;20024;-77
2022/08/06 08:59:14;;;;;;;5.60;2.85;;;;;;;;;;5100103;28;20016;-77
2022/08/06 09:01:40;;;;;;;5.32;3.40;;;;;;;;;;5099537;28;20023;-77
2022/08/06 09:04:07;;;;;;;3.45;2.30;;;;;;;;;;5099774;28;20103;-76
2022/08/06 09:06:34;;;;;;;4.32;2.50;;;;;;;;;;5098861;28;20047;-77
2022/08/06 09:09:04;;;;;;;6.03;2.63;;;;;;;;;;5099981;28;20016;-77
2022/08/06 09:11:33;;;;;;;3.60;3.25;;;;;;;;;;5098391;28;20109;-76
2022/08/06 09:14:03;;;;;;;7.45;2.60;;;;;;;;;;5099638;28;20024;-76
2022/08/06 09:16:29;;;;;;;23.98;18.27;;;;;;;;;;5099646;28;20410;-77
2022/08/06 09:18:55;;;;;;;5.15;3.10;;;;;;;;;;5099544;28;20059;-77
2022/08/06 09:21:21;;;;;;;8.25;2.78;;;;;;;;;;5099698;28;20024;-76
2022/08/06 09:23:47;;;;;;;4.07;2.60;;;;;;;;;;5099666;28;20028;-77
2022/08/06 09:26:14;;;;;;;5.63;3.20;;;;;;;;;;5099614;28;20020;-76
2022/08/06 09:28:41;;;;;;;6.20;3.20;;;;;;;;;;5098290;28;20038;-76
2022/08/06 09:31:09;;;;;;;7.68;5.55;;;;;;;;;;5099370;28;20425;-77
2022/08/06 09:33:36;;;;;;;6.53;2.85;;;;;;;;;;5097950;28;20059;-76
2022/08/06 09:36:07;;;;;;;5.43;4.55;;;;;;;;;;5099476;28;20028;-77
2022/08/06 09:38:33;;;;;;;;;;;;;;;;;;5099694;28;20024;-77
2022/08/06 09:41:10;;;;;;;4.43;3.30;;;;;;;;;;5099313;28;20225;-77
2022/08/06 09:43:37;;;;;;;3.78;3.28;;;;;;;;;;5098907;28;20028;-77
2022/08/06 09:46:03;;;;;;;5.85;3.53;;;;;;;;;;5098999;28;20016;-77
2022/08/06 09:48:29;;;;;;;7.15;2.70;;;;;;;;;;5099255;28;20024;-77
2022/08/06 09:50:56;;;;;;;9.23;4.47;;;;;;;;;;5099057;28;20091;-77
2022/08/06 09:53:22;;;;;;;9.07;4.25;;;;;;;;;;5098406;28;20055;-77
2022/08/06 09:55:52;;;;;;;4.88;2.70;;;;;;;;;;5099017;28;20568;-76
2022/08/06 09:58:34;;;;;;;4.20;2.78;;;;;;;;;;5098928;28;20066;-76
2022/08/06 10:01:17;;;;;;;6.00;2.75;;;;;;;;;;5098884;28;20028;-76
2022/08/06 10:03:45;;;;;;;3.92;2.90;;;;;;;;;;5098655;28;20024;-76
2022/08/06 10:06:20;;;;;;;3.47;3.00;;;;;;;;;;5098901;28;20024;-76
2022/08/06 10:08:50;;;;;;;5.07;2.78;;;;;;;;;;5098555;28;20031;-76
2022/08/06 10:11:34;;;;;;;5.80;2.83;;;;;;;;;;5098599;28;20021;-77
2022/08/06 10:14:00;;;;;;;5.93;2.75;;;;;;;;;;5098564;28;20035;-76
2022/08/06 10:16:29;;;;;;;4.55;2.75;;;;;;;;;;5098532;28;20024;-77
2022/08/06 10:18:56;;;;;;;9.40;3.10;;;;;;;;;;5098460;28;20029;-76
2022/08/06 10:21:23;;;;;;;8.15;2.90;;;;;;;;;;5096902;28;20827;-77
2022/08/06 10:23:50;;;;;;;3.50;3.08;;;;;;;;;;5098331;28;20091;-76
2022/08/06 10:26:22;;;;;;;6.35;2.70;;;;;;;;;;5096825;28;20031;-76
2022/08/06 10:28:49;;;;;;;6.80;2.70;;;;;;;;;;5097207;28;20066;-77
2022/08/06 10:31:16;;;;;;;6.05;2.88;;;;;;;;;;5098194;28;20105;-76
2022/08/06 10:33:49;;;;;;;9.85;2.97;;;;;;;;;;5097187;28;20031;-76
2022/08/06 10:36:15;;;;;;;4.90;2.50;;;;;;;;;;5098149;28;20028;-76
2022/08/06 10:38:45;;;;;;;3.00;2.75;;;;;;;;;;5098065;28;20028;-76
2022/08/06 10:41:12;;;;;;;6.65;3.00;;;;;;;;;;5110057;28;20105;-76
2022/08/06 10:43:38;;;;;;;4.32;3.25;;;;;;;;;;5118151;28;20405;-76
2022/08/06 10:46:05;;;;;;;5.32;2.63;;;;;;;;;;5118424;28;20039;-76
2022/08/06 10:48:31;;;;;;;4.22;2.50;;;;;;;;;;5117161;28;20051;-76
2022/08/06 10:50:58;;;;;;;3.03;2.55;;;;;;;;;;5117027;28;20058;-76
2022/08/06 10:53:24;;;;;;;5.30;2.40;;;;;;;;;;5117813;28;20044;-76
2022/08/06 10:55:50;;;;;;;7.22;2.80;;;;;;;;;;5116744;28;20118;-76
2022/08/06 10:58:16;;;;;;;7.85;3.05;;;;;;;;;;5118219;28;20026;-76
2022/08/06 11:00:44;;;;;;;3.28;2.72;;;;;;;;;;5118044;28;20040;-76
2022/08/06 11:03:16;;;;;;;4.70;2.63;;;;;;;;;;5118046;28;20111;-76
2022/08/06 11:05:45;;;;;;;3.03;2.60;;;;;;;;;;5116594;28;20035;-76
2022/08/06 11:08:23;;;;;;;6.68;2.97;;;;;;;;;;5117902;28;20027;-76
2022/08/06 11:10:49;;;;;;;3.30;3.00;;;;;;;;;;5117849;28;20405;-76
2022/08/06 11:13:27;;;;;;;3.40;2.50;;;;;;;;;;5117841;28;20039;-76
2022/08/06 11:15:54;;;;;;;8.25;2.92;;;;;;;;;;5117487;28;20106;-76
2022/08/06 11:18:21;;;;;;;5.50;2.90;;;;;;;;;;5116733;28;20024;-77
2022/08/06 11:20:52;;;;;;;7.00;2.53;;;;;;;;;;5118030;28;20049;-76
2022/08/06 11:23:18;;;;;;;8.65;2.95;;;;;;;;;;5117922;28;20031;-77
2022/08/06 11:25:47;;;;;;;4.13;2.58;;;;;;;;;;5117866;28;20024;-77
2022/08/06 11:28:13;;;;;;;6.95;2.90;;;;;;;;;;5117724;28;20031;-77
2022/08/06 11:30:46;;;;;;;4.97;2.90;;;;;;;;;;5117596;28;20304;-76
2022/08/06 11:33:14;;;;;;;7.97;2.88;;;;;;;;;;5117480;28;20027;-77
2022/08/06 11:35:41;;;;;;;3.83;2.80;;;;;;;;;;5117514;28;20031;-77
2022/08/06 11:38:08;;;;;;;6.05;2.65;;;;;;;;;;5117464;28;20039;-77
2022/08/06 11:40:52;;;;;;;2.90;2.70;;;;;;;;;;5117615;28;20023;-76
2022/08/06 11:43:37;;;;;;;5.53;2.67;;;;;;;;;;5117443;28;20032;-76
2022/08/06 11:46:24;;;;;;;6.85;2.80;;;;;;;;;;5117744;28;20027;-77
2022/08/06 11:48:59;;;;;;;5.43;3.10;;;;;;;;;;5117456;28;20103;-76
2022/08/06 11:51:52;;;;;;;6.03;2.90;;;;;;;;;;5116436;28;20059;-76
2022/08/06 11:54:37;;;;;;;4.68;2.97;;;;;;;;;;5112763;28;20043;-76
2022/08/06 11:59:31;;;;;;;5.55;2.63;;;;;;;;;;5117619;28;20032;-76
2022/08/06 12:01:57;;;;;;;4.13;3.35;;;;;;;;;;5117198;28;20065;-77
2022/08/06 12:04:36;;;;;;;7.25;2.78;;;;;;;;;;5119609;28;20279;-77
2022/08/06 12:07:21;;;;;;;3.38;2.70;;;;;;;;;;5121342;28;20035;-76
2022/08/06 12:10:00;;;;;;;6.80;2.97;;;;;;;;;;5121460;28;20019;-77
2022/08/06 12:12:32;;;;;;;4.25;2.95;;;;;;;;;;5121429;28;20409;-77
2022/08/06 12:14:59;;;;;;;5.68;4.00;;;;;;;;;;5121294;27;20031;-76
2022/08/06 12:17:27;;;;;;;3.08;2.67;;;;;;;;;;5121147;28;20020;-76
2022/08/06 12:19:54;;;;;;;2.92;2.55;;;;;;;;;;5120149;28;20019;-76
2022/08/06 12:22:21;;;;;;;5.82;2.25;;;;;;;;;;5121101;28;20116;-77
2022/08/06 12:24:54;;;;;;;3.92;2.78;;;;;;;;;;5121307;28;20032;-77
2022/08/06 12:27:24;;;;;;;3.33;2.75;;;;;;;;;;5119540;28;20038;-76
2022/08/06 12:29:55;;;;;;;3.83;2.65;;;;;;;;;;5120989;28;20019;-76
2022/08/06 12:32:27;;;;;;;3.60;2.90;;;;;;;;;;5120895;28;20029;-76
2022/08/06 12:34:55;;;;;;;5.53;3.10;;;;;;;;;;5120970;28;20405;-76
2022/08/06 12:37:21;;;;;;;7.18;3.38;;;;;;;;;;5120820;28;20028;-76
2022/08/06 12:42:34;;;;;;;6.97;2.75;;;;;;;;;;5120860;28;20117;-76
2022/08/06 12:45:00;;;;;;;8.40;3.00;;;;;;;;;;5120693;28;20073;-76
2022/08/06 12:47:26;;;;;;;5.43;2.60;;;;;;;;;;5120427;28;20023;-76
2022/08/06 12:49:53;;;;;;;8.07;2.83;;;;;;;;;;5120665;28;20072;-77
2022/08/06 12:52:20;;;;;;;4.18;3.25;;;;;;;;;;5120262;28;20054;-76
2022/08/06 12:54:47;;;;;;;5.38;2.80;;;;;;;;;;5120631;28;20401;-76
2022/08/06 12:57:20;;;;;;;4.22;2.80;;;;;;;;;;5120300;28;20034;-77
2022/08/06 12:59:46;;;;;;;3.90;2.60;;;;;;;;;;5120661;28;20053;-76
2022/08/06 13:02:12;;;;;;;10.45;3.00;;;;;;;;;;5120324;28;20027;-77
2022/08/06 13:04:42;;;;;;;7.22;2.80;;;;;;;;;;5120429;28;20024;-76
2022/08/06 13:07:08;;;;;;;4.97;2.67;;;;;;;;;;5120407;28;20046;-76
2022/08/06 13:09:34;;;;;;;6.88;3.03;;;;;;;;;;5120217;28;20024;-76
2022/08/06 13:12:11;;;;;;;5.25;2.70;;;;;;;;;;5120108;28;20072;-76
2022/08/06 13:14:48;;;;;;;4.55;2.60;;;;;;;;;;5119641;28;20355;-76
2022/08/06 13:17:14;;;;;;;3.45;2.53;;;;;;;;;;5120166;28;20027;-77
2022/08/06 13:19:51;;;;;;;2.97;2.67;;;;;;;;;;5120136;28;20019;-76
2022/08/06 13:22:17;;;;;;;8.80;2.85;;;;;;;;;;5120209;28;20082;-76
2022/08/06 13:24:43;;;;;;;3.50;2.72;;;;;;;;;;5120062;28;20053;-76
2022/08/06 13:27:09;;;;;;;6.63;3.13;;;;;;;;;;5108961;28;20424;-77
2022/08/06 13:29:35;;;;;;;5.65;2.83;;;;;;;;;;5117331;28;20458;-76
2022/08/06 13:32:03;;;;;;;7.72;3.00;;;;;;;;;;5119862;28;20046;-76
2022/08/06 13:34:30;;;;;;;7.03;3.00;;;;;;;;;;5119810;28;20050;-76
2022/08/06 13:37:00;;;;;;;4.97;2.80;;;;;;;;;;5111257;28;20027;-76
2022/08/06 13:39:26;;;;;;;;;;;;;;;;;;5120275;28;20072;-76
2022/08/06 13:42:08;;;;;;;3.00;2.70;;;;;;;;;;5118734;28;19904;-78
2022/08/06 13:44:35;;;;;;;5.68;2.90;;;;;;;;;;5100011;27;20072;-78
2022/08/06 13:47:01;;;;;;;4.68;2.67;;;;;;;;;;5113337;28;20054;-78
2022/08/06 13:49:27;;;;;;;4.32;2.83;;;;;;;;;;5119004;28;20027;-78
2022/08/06 13:51:54;;;;;;;5.90;3.08;;;;;;;;;;5105980;28;20410;-79
2022/08/06 13:54:20;;;;;;;4.05;2.58;;;;;;;;;;5107119;28;20023;-78
2022/08/06 13:56:47;;;;;;;4.20;2.75;;;;;;;;;;5118824;28;20106;-78
2022/08/06 13:59:13;;;;;;;9.25;3.17;;;;;;;;;;5118054;28;20309;-78
2022/08/06 14:01:39;;;;;;;6.22;2.90;;;;;;;;;;5119060;28;20409;-78
2022/08/06 14:04:05;;;;;;;12.10;2.83;;;;;;;;;;5119018;28;20409;-77
2022/08/06 14:06:31;;;;;;;4.43;2.70;;;;;;;;;;5117417;28;20031;-78
2022/08/06 14:08:57;;;;;;;3.97;2.50;;;;;;;;;;5117110;28;20043;-78
2022/08/06 14:11:23;;;;;;;7.57;2.40;;;;;;;;;;5118998;28;20072;-78
2022/08/06 14:13:49;;;;;;;5.78;2.70;;;;;;;;;;5106928;28;20038;-79
2022/08/06 14:16:15;;;;;;;6.22;2.67;;;;;;;;;;5098290;28;20107;-78
2022/08/06 14:18:41;;;;;;;3.22;2.80;;;;;;;;;;5098019;28;20044;-79
2022/08/06 14:21:08;;;;;;;4.15;2.60;;;;;;;;;;5097390;28;20040;-78
2022/08/06 14:23:34;;;;;;;4.40;2.67;;;;;;;;;;5102857;28;20325;-78
2022/08/06 14:26:07;;;;;;;3.85;2.83;;;;;;;;;;5114114;28;20023;-78
2022/08/06 14:28:33;;;;;;;6.80;2.65;;;;;;;;;;5118302;28;20306;-78
2022/08/06 14:30:59;;;;;;;3.78;2.95;;;;;;;;;;5117084;28;20149;-79
2022/08/06 14:33:25;;;;;;;3.20;2.58;;;;;;;;;;5100847;28;20024;-79
2022/08/06 14:35:51;;;;;;;4.05;2.70;;;;;;;;;;5097864;28;20141;-79
2022/08/06 14:38:18;;;;;;;5.40;2.72;;;;;;;;;;5109293;27;20029;-80
2022/08/06 14:46:14;;;;;;;5.00;2.70;;;;;;;;;;5115854;28;20031;-80
2022/08/06 14:48:40;;;;;;;4.57;2.70;;;;;;;;;;5104375;28;20028;-78
2022/08/06 14:51:06;;;;;;;5.90;3.10;;;;;;;;;;5097825;28;20016;-79
2022/08/06 14:53:32;;;;;;;7.20;2.80;;;;;;;;;;5097392;28;20052;-79
2022/08/06 14:55:58;;;;;;;9.90;2.63;;;;;;;;;;5096219;28;20065;-79
2022/08/06 14:58:24;;;;;;;5.75;2.78;;;;;;;;;;5096306;28;20032;-78
2022/08/06 15:00:51;;;;;;;5.20;2.67;;;;;;;;;;5097479;28;20412;-79
2022/08/06 15:03:17;;;;;;;15.63;2.90;;;;;;;;;;5097343;28;20028;-79
2022/08/06 15:05:44;;;;;;;4.43;2.55;;;;;;;;;;5097464;28;20024;-79
2022/08/06 15:08:10;;;;;;;3.95;2.63;;;;;;;;;;5096357;28;20024;-78
2022/08/06 15:10:36;;;;;;;7.00;2.75;;;;;;;;;;5097272;28;20044;-78
2022/08/06 15:13:03;;;;;;;3.05;2.53;;;;;;;;;;5097057;28;20027;-78